Time;durP1;ratioP1;P1;durP2;ratioP2;P2;SDS_P1;SDS_P2;PMS_P1;PMS_P2;Temp;Humidity;BMP_temperature;BMP_pressure;BME280_temperature;BME280_humidity;BME280_pressure;Samples;Min_cycle;Max_cycle;Signal;HPM_P1;HPM_P2
2021/10/25 00:01:19;;;;;;;3.70;3.07;;;5.50;99.90;;;;;;5086474;28;20451;-70
2021/10/25 00:03:44;;;;;;;3.43;2.57;;;5.50;99.90;;;;;;5087037;28;20415;-71
2021/10/25 00:06:10;;;;;;;4.00;2.20;;;5.50;99.90;;;;;;5092770;28;20480;-70
2021/10/25 00:08:35;;;;;;;2.30;1.80;;;5.50;99.90;;;;;;5073610;28;20190;-69
2021/10/25 00:11:00;;;;;;;2.83;2.50;;;5.40;99.90;;;;;;5087475;28;20201;-70
2021/10/25 00:13:26;;;;;;;3.73;2.77;;;5.40;99.90;;;;;;5093671;28;20222;-69
2021/10/25 00:15:52;;;;;;;5.10;2.90;;;5.50;99.90;;;;;;5093755;28;20165;-69
2021/10/25 00:18:17;;;;;;;7.33;3.10;;;5.40;99.90;;;;;;5093076;28;20194;-69
2021/10/25 00:20:43;;;;;;;5.20;2.87;;;5.40;99.90;;;;;;5086441;28;20173;-71
2021/10/25 00:23:08;;;;;;;4.47;3.40;;;5.40;99.90;;;;;;5093603;28;20626;-71
2021/10/25 00:25:34;;;;;;;4.17;3.47;;;5.40;99.90;;;;;;5093567;28;20181;-70
2021/10/25 00:28:00;;;;;;;6.43;3.37;;;5.40;99.90;;;;;;5093691;28;20182;-70
2021/10/25 00:30:25;;;;;;;2.40;2.23;;;5.40;99.90;;;;;;5093584;28;20442;-70
2021/10/25 00:32:51;;;;;;;3.10;2.67;;;5.30;99.90;;;;;;5093902;28;20687;-70
2021/10/25 00:35:17;;;;;;;4.53;2.50;;;5.40;99.90;;;;;;5092675;28;20400;-69
2021/10/25 00:37:43;;;;;;;4.23;2.03;;;5.40;99.90;;;;;;5093364;28;20181;-69
2021/10/25 00:40:09;;;;;;;2.60;2.20;;;5.30;99.90;;;;;;5093546;28;20878;-70
2021/10/25 00:42:34;;;;;;;2.73;2.53;;;5.30;99.90;;;;;;5093474;28;20407;-69
2021/10/25 00:45:00;;;;;;;6.43;3.17;;;5.30;99.90;;;;;;5093112;28;20407;-70
2021/10/25 00:47:26;;;;;;;2.90;2.53;;;5.40;99.90;;;;;;5093307;28;20190;-70
2021/10/25 00:49:51;;;;;;;3.37;1.93;;;5.40;99.90;;;;;;5093304;28;20193;-71
2021/10/25 00:52:18;;;;;;;4.27;2.40;;;5.30;99.90;;;;;;5093047;28;20274;-69
2021/10/25 00:54:45;;;;;;;4.23;2.33;;;5.30;99.90;;;;;;5092995;28;20158;-69
2021/10/25 00:57:11;;;;;;;4.37;2.97;;;5.30;99.90;;;;;;5093117;28;20462;-70
2021/10/25 00:59:36;;;;;;;3.57;2.43;;;5.30;99.90;;;;;;5092999;28;20492;-70
2021/10/25 01:02:03;;;;;;;3.93;3.10;;;5.30;99.90;;;;;;5093061;28;20407;-70
2021/10/25 01:04:29;;;;;;;1.60;1.50;;;5.30;99.90;;;;;;5092911;28;20511;-70
2021/10/25 01:06:57;;;;;;;1.97;1.60;;;5.30;99.90;;;;;;5092857;28;20414;-70
2021/10/25 01:09:24;;;;;;;6.40;1.93;;;5.20;99.90;;;;;;5090562;28;20411;-72
2021/10/25 01:11:49;;;;;;;3.77;3.10;;;5.20;99.90;;;;;;5074781;28;20978;-70
2021/10/25 01:14:18;;;;;;;2.43;2.23;;;5.20;99.90;;;;;;5072580;28;20439;-69
2021/10/25 01:16:44;;;;;;;2.47;2.27;;;5.20;99.90;;;;;;5072525;28;20205;-70
2021/10/25 01:19:10;;;;;;;4.30;3.17;;;5.20;99.90;;;;;;5072321;28;20439;-70
2021/10/25 01:21:36;;;;;;;2.30;2.00;;;5.20;99.90;;;;;;5054404;28;20444;-70
2021/10/25 01:24:02;;;;;;;4.43;4.00;;;5.10;99.90;;;;;;5072239;28;20232;-70
2021/10/25 01:26:28;;;;;;;2.50;2.03;;;5.10;99.90;;;;;;5072250;28;20653;-70
2021/10/25 01:28:53;;;;;;;3.37;1.87;;;5.10;99.90;;;;;;5072266;28;20481;-69
2021/10/25 01:31:21;;;;;;;2.70;2.40;;;5.10;99.90;;;;;;5072147;28;20564;-70
2021/10/25 01:33:48;;;;;;;3.73;2.97;;;5.10;99.90;;;;;;5072336;28;20578;-70
2021/10/25 01:36:15;;;;;;;4.10;2.30;;;5.10;99.90;;;;;;5071027;28;20405;-68
2021/10/25 01:38:40;;;;;;;4.30;3.00;;;5.00;99.90;;;;;;5071992;28;20443;-68
2021/10/25 01:41:07;;;;;;;3.40;2.47;;;4.90;99.90;;;;;;5072096;28;20919;-69
2021/10/25 01:43:37;;;;;;;4.57;3.03;;;4.90;99.90;;;;;;5071966;28;20178;-69
2021/10/25 01:46:07;;;;;;;4.50;2.27;;;4.90;99.90;;;;;;5071589;28;20415;-71
2021/10/25 01:48:32;;;;;;;3.47;2.57;;;4.90;99.90;;;;;;5072235;28;20436;-71
2021/10/25 01:51:00;;;;;;;2.30;2.10;;;4.90;99.90;;;;;;5071790;28;20536;-71
2021/10/25 01:53:28;;;;;;;2.40;2.17;;;4.80;99.90;;;;;;5072291;28;20898;-69
2021/10/25 01:55:56;;;;;;;2.63;2.03;;;4.80;99.90;;;;;;5072247;28;20835;-70
2021/10/25 01:58:22;;;;;;;5.20;2.27;;;4.90;99.90;;;;;;5071911;28;20424;-71
2021/10/25 02:00:47;;;;;;;4.50;3.53;;;4.80;99.90;;;;;;5071765;28;20419;-69
2021/10/25 02:03:13;;;;;;;2.43;1.90;;;4.80;99.90;;;;;;5071790;28;20162;-69
2021/10/25 02:05:39;;;;;;;6.80;3.00;;;4.70;99.90;;;;;;5071661;28;20178;-69
2021/10/25 02:08:05;;;;;;;4.13;3.13;;;4.70;99.90;;;;;;5071499;28;20526;-69
2021/10/25 02:10:31;;;;;;;2.70;2.50;;;4.70;99.90;;;;;;5071650;28;20444;-70
2021/10/25 02:12:56;;;;;;;8.73;3.00;;;4.70;99.90;;;;;;5072319;28;20174;-70
2021/10/25 02:15:22;;;;;;;4.13;2.20;;;4.70;99.90;;;;;;5072099;28;20396;-70
2021/10/25 02:17:50;;;;;;;2.70;2.10;;;4.60;99.90;;;;;;5072117;28;20189;-69
2021/10/25 02:20:16;;;;;;;3.07;2.40;;;4.60;99.90;;;;;;5070317;28;20703;-69
2021/10/25 02:22:41;;;;;;;3.13;2.10;;;4.60;99.90;;;;;;5071693;28;20405;-69
2021/10/25 02:25:07;;;;;;;3.77;2.50;;;4.60;99.90;;;;;;5071715;28;20181;-69
2021/10/25 02:27:33;;;;;;;3.60;2.10;;;4.60;99.90;;;;;;5071793;28;20595;-70
2021/10/25 02:29:58;;;;;;;1.77;1.47;;;4.60;99.90;;;;;;5071692;28;20493;-70
2021/10/25 02:32:24;;;;;;;6.30;3.30;;;4.60;99.90;;;;;;5071743;28;20173;-69
2021/10/25 02:34:54;;;;;;;5.17;3.33;;;4.60;99.90;;;;;;5071609;28;20170;-69
2021/10/25 02:37:19;;;;;;;6.20;2.50;;;4.60;99.90;;;;;;5071782;28;20447;-68
2021/10/25 02:39:45;;;;;;;4.47;2.87;;;4.60;99.90;;;;;;5071479;28;20401;-69
2021/10/25 02:42:15;;;;;;;4.30;3.20;;;4.60;99.90;;;;;;5071681;28;20158;-70
2021/10/25 02:44:43;;;;;;;4.27;2.60;;;4.60;99.90;;;;;;5071293;28;20408;-71
2021/10/25 02:47:09;;;;;;;3.60;2.30;;;4.50;99.90;;;;;;5071218;28;20483;-71
2021/10/25 02:49:34;;;;;;;4.03;2.30;;;4.60;99.90;;;;;;5101643;28;20445;-70
2021/10/25 02:52:01;;;;;;;2.53;2.23;;;4.50;99.90;;;;;;5111356;28;20175;-70
2021/10/25 02:54:26;;;;;;;3.90;2.53;;;4.50;99.90;;;;;;5111912;28;20645;-70
2021/10/25 02:56:53;;;;;;;5.87;2.40;;;4.60;99.90;;;;;;5111658;28;20451;-70
2021/10/25 02:59:19;;;;;;;2.73;1.83;;;4.50;99.90;;;;;;5115046;28;20225;-68
2021/10/25 03:01:46;;;;;;;2.90;2.40;;;4.50;99.90;;;;;;5115562;28;21091;-69
2021/10/25 03:04:12;;;;;;;4.23;2.70;;;4.50;99.90;;;;;;5115411;28;20169;-70
2021/10/25 03:06:37;;;;;;;4.53;2.67;;;4.50;99.90;;;;;;5115591;28;20548;-68
2021/10/25 03:09:05;;;;;;;3.60;2.53;;;4.50;99.90;;;;;;5115481;27;20429;-68
2021/10/25 03:11:30;;;;;;;3.90;3.30;;;4.40;99.90;;;;;;5098043;28;20541;-69
2021/10/25 03:13:56;;;;;;;3.10;2.57;;;4.40;99.90;;;;;;5094953;28;20412;-69
2021/10/25 03:16:22;;;;;;;4.87;2.30;;;4.40;99.90;;;;;;5094975;28;20176;-71
2021/10/25 03:18:49;;;;;;;3.30;2.37;;;4.30;99.90;;;;;;5094745;28;20819;-69
2021/10/25 03:21:16;;;;;;;2.43;2.23;;;4.30;99.90;;;;;;5094923;28;20407;-69
2021/10/25 03:23:41;;;;;;;5.10;2.47;;;4.30;99.90;;;;;;5094790;28;20412;-69
2021/10/25 03:26:07;;;;;;;6.57;3.37;;;4.30;99.90;;;;;;5095208;28;20408;-70
2021/10/25 03:28:33;;;;;;;2.67;1.77;;;4.30;99.90;;;;;;5094938;28;20193;-69
2021/10/25 03:30:59;;;;;;;6.20;2.73;;;4.30;99.90;;;;;;5094665;28;20209;-69
2021/10/25 03:33:25;;;;;;;3.20;2.90;;;4.30;99.90;;;;;;5094751;28;20502;-70
2021/10/25 03:35:51;;;;;;;2.83;2.63;;;4.30;99.90;;;;;;5094987;28;20898;-70
2021/10/25 03:38:17;;;;;;;3.50;2.10;;;4.20;99.90;;;;;;5094684;28;20235;-70
2021/10/25 03:40:48;;;;;;;3.20;2.43;;;4.20;99.90;;;;;;5093381;28;20410;-69
2021/10/25 03:43:14;;;;;;;4.30;2.33;;;4.30;99.90;;;;;;5094356;28;20408;-70
2021/10/25 03:45:49;;;;;;;3.00;2.70;;;4.30;99.90;;;;;;5094380;28;20484;-69
2021/10/25 03:48:25;;;;;;;3.97;2.30;;;4.30;99.90;;;;;;5094485;28;20439;-69
2021/10/25 03:50:51;;;;;;;2.57;2.37;;;4.30;99.90;;;;;;5094341;28;20543;-70
2021/10/25 03:53:38;;;;;;;8.60;2.20;;;4.20;99.90;;;;;;5094525;28;20400;-69
2021/10/25 04:01:27;;;;;;;7.23;2.60;;;4.20;99.90;;;;;;5094071;28;20226;-70
2021/10/25 04:04:11;;;;;;;2.67;2.47;;;4.20;99.90;;;;;;5092864;28;20830;-69
2021/10/25 04:28:27;;;;;;;4.00;2.20;;;4.10;99.90;;;;;;5093831;28;20514;-69
2021/10/25 04:30:57;;;;;;;6.07;2.47;;;4.10;99.90;;;;;;5093658;28;20945;-72
2021/10/25 04:33:23;;;;;;;3.90;2.27;;;4.10;99.90;;;;;;5093494;28;20403;-70
2021/10/25 04:35:49;;;;;;;3.07;2.87;;;4.10;99.90;;;;;;5093526;28;20910;-70
2021/10/25 04:38:15;;;;;;;3.17;2.33;;;4.00;99.90;;;;;;5093453;28;20476;-70
2021/10/25 04:40:40;;;;;;;2.87;2.23;;;4.00;99.90;;;;;;5093396;28;20499;-70
2021/10/25 04:43:09;;;;;;;3.37;3.00;;;4.00;99.90;;;;;;5093412;28;20254;-70
2021/10/25 04:45:34;;;;;;;3.37;2.70;;;3.90;99.90;;;;;;5093257;28;20550;-69
2021/10/25 04:48:00;;;;;;;2.30;2.10;;;4.00;99.90;;;;;;5093312;28;20428;-69
2021/10/25 04:50:26;;;;;;;2.33;2.13;;;4.00;99.90;;;;;;5093391;28;20848;-70
2021/10/25 04:52:51;;;;;;;5.57;2.03;;;3.90;99.90;;;;;;5093451;28;20237;-70
2021/10/25 04:55:17;;;;;;;2.17;1.80;;;3.90;99.90;;;;;;5093230;28;20162;-71
2021/10/25 04:57:42;;;;;;;3.37;2.30;;;3.90;99.90;;;;;;5093291;28;20224;-69
2021/10/25 05:00:08;;;;;;;1.90;1.80;;;3.90;99.90;;;;;;5093148;28;20848;-69
2021/10/25 05:02:34;;;;;;;3.80;3.50;;;3.90;99.90;;;;;;5092870;28;20169;-70
2021/10/25 05:05:01;;;;;;;2.33;2.13;;;3.90;99.90;;;;;;5092883;28;20403;-69
2021/10/25 05:07:26;;;;;;;3.27;2.97;;;3.90;99.90;;;;;;5092912;28;20196;-70
2021/10/25 05:09:52;;;;;;;3.80;3.30;;;3.90;99.90;;;;;;5092825;28;20415;-70
2021/10/25 05:12:18;;;;;;;4.07;1.93;;;4.00;99.90;;;;;;5083495;28;20178;-69
2021/10/25 05:14:44;;;;;;;2.77;2.33;;;3.90;99.90;;;;;;5088309;28;20165;-70
2021/10/25 05:17:10;;;;;;;6.00;2.10;;;4.00;99.90;;;;;;5090304;28;20235;-70
2021/10/25 05:19:35;;;;;;;3.57;3.07;;;4.00;99.90;;;;;;5072086;28;20436;-71
2021/10/25 05:22:01;;;;;;;2.43;2.20;;;4.00;99.90;;;;;;5071660;28;20455;-72
2021/10/25 05:24:27;;;;;;;3.30;2.33;;;4.00;99.90;;;;;;5072098;28;20198;-70
2021/10/25 05:26:53;;;;;;;2.97;2.67;;;4.00;99.90;;;;;;5072493;28;20407;-70
2021/10/25 05:29:18;;;;;;;3.73;2.73;;;4.00;99.90;;;;;;5073219;28;20171;-70
2021/10/25 05:31:45;;;;;;;3.20;2.77;;;4.00;99.90;;;;;;5092149;28;20248;-71
2021/10/25 05:34:10;;;;;;;5.03;2.47;;;4.00;99.90;;;;;;5092456;28;20185;-70
2021/10/25 05:36:36;;;;;;;3.13;2.83;;;4.00;99.90;;;;;;5092398;28;20404;-70
2021/10/25 05:39:02;;;;;;;2.50;1.77;;;4.00;99.90;;;;;;5092176;28;20227;-70
2021/10/25 05:41:29;;;;;;;3.33;2.57;;;4.00;99.90;;;;;;5092127;28;20162;-70
2021/10/25 05:43:54;;;;;;;1.53;1.43;;;4.00;99.90;;;;;;5092265;28;20751;-71
2021/10/25 05:46:20;;;;;;;4.60;2.80;;;3.90;99.90;;;;;;5092356;28;20410;-71
2021/10/25 05:48:46;;;;;;;4.10;1.93;;;3.90;99.90;;;;;;5092469;28;20195;-70
2021/10/25 05:51:12;;;;;;;4.10;1.60;;;4.00;99.90;;;;;;5092669;28;20189;-70
2021/10/25 05:53:37;;;;;;;3.50;2.20;;;3.90;99.90;;;;;;5092467;28;20614;-70
2021/10/25 05:56:03;;;;;;;2.83;2.17;;;3.90;99.90;;;;;;5092252;28;20427;-70
2021/10/25 05:58:29;;;;;;;2.13;1.97;;;3.90;99.90;;;;;;5086028;28;20224;-70
2021/10/25 06:00:57;;;;;;;3.43;2.50;;;4.00;99.90;;;;;;5072813;28;20888;-70
2021/10/25 06:03:24;;;;;;;3.07;2.77;;;4.00;99.90;;;;;;5077966;28;20507;-70
2021/10/25 06:05:50;;;;;;;5.53;2.90;;;4.00;99.90;;;;;;5092178;28;20452;-70
2021/10/25 06:08:16;;;;;;;5.50;2.70;;;3.90;99.90;;;;;;5091729;28;20789;-71
2021/10/25 06:10:42;;;;;;;12.03;4.77;;;3.90;99.90;;;;;;5091855;28;20443;-70
2021/10/25 06:13:10;;;;;;;3.57;2.63;;;4.00;99.90;;;;;;5091814;28;20406;-70
2021/10/25 06:15:39;;;;;;;2.63;2.43;;;4.10;99.90;;;;;;5089017;28;20410;-69
2021/10/25 06:18:08;;;;;;;3.43;3.13;;;4.30;99.90;;;;;;5091446;28;20534;-70
2021/10/25 06:20:39;;;;;;;3.60;2.50;;;4.30;99.90;;;;;;5091562;28;20431;-69
2021/10/25 06:23:13;;;;;;;6.43;3.37;;;4.40;99.90;;;;;;5091705;28;20400;-71
2021/10/25 06:25:40;;;;;;;3.40;3.10;;;4.40;99.90;;;;;;5091497;28;20992;-70
2021/10/25 06:28:06;;;;;;;2.60;2.13;;;4.40;99.90;;;;;;5091541;28;20419;-70
2021/10/25 06:30:33;;;;;;;2.77;1.97;;;4.40;99.90;;;;;;5091169;28;20455;-69
2021/10/25 06:32:58;;;;;;;5.63;2.70;;;4.40;99.90;;;;;;5094673;28;20418;-70
2021/10/25 06:35:26;;;;;;;3.57;3.27;;;4.40;99.90;;;;;;5095717;28;20898;-69
2021/10/25 06:38:12;;;;;;;2.03;1.83;;;4.50;99.90;;;;;;5095662;28;20184;-69
2021/10/25 06:40:38;;;;;;;2.90;2.20;;;4.60;99.90;;;;;;5094573;28;20953;-69
2021/10/25 06:43:04;;;;;;;4.17;2.60;;;4.60;99.90;;;;;;5095588;28;20411;-69
2021/10/25 06:45:30;;;;;;;3.53;2.10;;;4.60;99.90;;;;;;5095492;28;20411;-72
2021/10/25 06:48:03;;;;;;;3.10;2.90;;;4.70;99.90;;;;;;5095620;28;20426;-70
2021/10/25 06:50:30;;;;;;;5.23;2.63;;;4.80;99.90;;;;;;5094278;28;20457;-69
2021/10/25 06:53:07;;;;;;;2.40;2.03;;;4.90;99.90;;;;;;5075023;28;20456;-68
2021/10/25 06:55:34;;;;;;;4.13;2.70;;;5.00;99.90;;;;;;5074932;28;20764;-70
2021/10/25 06:58:00;;;;;;;8.40;2.37;;;5.00;99.90;;;;;;5075066;28;20833;-69
2021/10/25 07:00:26;;;;;;;3.20;2.90;;;5.40;99.90;;;;;;5075113;28;20476;-69
2021/10/25 07:02:52;;;;;;;3.37;2.80;;;5.50;99.90;;;;;;5075104;28;20431;-70
2021/10/25 07:05:17;;;;;;;3.90;2.60;;;6.00;99.90;;;;;;5074969;28;20491;-69
2021/10/25 07:07:43;;;;;;;2.33;2.13;;;6.40;99.90;;;;;;5079468;28;20208;-69
2021/10/25 07:10:10;;;;;;;7.00;2.23;;;6.20;99.90;;;;;;5094925;28;20197;-71
2021/10/25 07:12:36;;;;;;;2.90;1.83;;;6.50;99.90;;;;;;5084452;28;20167;-71
2021/10/25 07:15:03;;;;;;;2.00;1.73;;;6.90;99.90;;;;;;5074530;28;20752;-70
2021/10/25 07:23:20;;;;;;;5.60;3.10;;;7.20;99.90;;;;;;5054471;28;20408;-70
2021/10/25 08:11:55;;;;;;;2.20;1.80;;;8.90;99.90;;;;;;5094037;28;20534;-71
2021/10/25 08:14:29;;;;;;;4.53;2.10;;;8.90;99.90;;;;;;5093885;28;20417;-71
2021/10/25 08:16:55;;;;;;;1.97;1.77;;;9.20;99.90;;;;;;5094022;28;20509;-70
2021/10/25 08:19:25;;;;;;;3.03;2.50;;;9.00;99.90;;;;;;5087989;28;20447;-71
2021/10/25 08:22:07;;;;;;;7.83;2.90;;;9.00;99.90;;;;;;5073781;28;20417;-70
2021/10/25 08:24:37;;;;;;;2.80;2.10;;;8.70;99.90;;;;;;5073789;28;20400;-70
2021/10/25 08:27:04;;;;;;;5.07;2.40;;;8.60;99.90;;;;;;5088847;28;20819;-71
2021/10/25 08:29:30;;;;;;;3.13;2.10;;;8.60;99.90;;;;;;5092267;28;20415;-73
2021/10/25 08:32:10;;;;;;;2.10;1.90;;;8.50;99.90;;;;;;5079978;28;20863;-70
2021/10/25 08:39:48;;;;;;;2.30;2.10;;;9.10;99.90;;;;;;5073223;28;20925;-71
2021/10/25 08:42:20;;;;;;;3.37;2.23;;;9.30;99.90;;;;;;5072389;28;20404;-70
2021/10/25 08:44:59;;;;;;;2.30;2.00;;;9.20;99.90;;;;;;5086530;28;20465;-70
2021/10/25 08:47:33;;;;;;;3.27;2.50;;;8.90;99.90;;;;;;5093357;28;20420;-73
2021/10/25 08:50:02;;;;;;;2.33;2.13;;;9.00;99.90;;;;;;5093265;28;20414;-73
2021/10/25 08:52:28;;;;;;;3.20;2.40;;;8.80;99.90;;;;;;5092619;28;20400;-74
2021/10/25 08:54:54;;;;;;;2.50;2.30;;;9.00;99.90;;;;;;5091741;28;20415;-71
2021/10/25 08:57:20;;;;;;;3.00;2.20;;;9.20;99.90;;;;;;5072318;28;20237;-71
2021/10/25 08:59:59;;;;;;;2.10;1.60;;;9.10;99.90;;;;;;5072752;28;20264;-71
2021/10/25 09:02:27;;;;;;;3.00;2.53;;;9.20;99.90;;;;;;5092118;28;20445;-74
2021/10/25 09:05:00;;;;;;;2.53;1.77;;;9.10;99.90;;;;;;5093377;28;20396;-74
2021/10/25 09:07:26;;;;;;;2.43;1.80;;;9.30;99.90;;;;;;5091409;28;20846;-72
2021/10/25 09:09:51;;;;;;;1.70;1.47;;;9.40;99.90;;;;;;5077584;28;20496;-71
2021/10/25 09:12:17;;;;;;;2.10;1.90;;;9.50;99.90;;;;;;5095589;28;20162;-72
2021/10/25 09:14:45;;;;;;;2.53;1.70;;;9.40;99.90;;;;;;5095109;28;20197;-71
2021/10/25 09:17:17;;;;;;;3.20;2.43;;;9.30;99.90;;;;;;5070580;28;20542;-72
2021/10/25 09:19:45;;;;;;;3.60;1.80;;;9.40;99.90;;;;;;5050401;28;20928;-72
2021/10/25 09:22:17;;;;;;;2.23;2.00;;;9.60;99.90;;;;;;5050851;28;20544;-72
2021/10/25 09:24:53;;;;;;;3.10;2.20;;;9.70;99.90;;;;;;5050602;28;20413;-72
2021/10/25 09:27:33;;;;;;;2.10;1.67;;;9.70;99.90;;;;;;5039839;28;20454;-72
2021/10/25 09:30:21;;;;;;;2.23;1.80;;;9.70;99.90;;;;;;5029628;28;20394;-72
2021/10/25 09:32:47;;;;;;;1.93;1.67;;;9.80;99.90;;;;;;5030679;28;20494;-72
2021/10/25 09:35:20;;;;;;;3.03;1.77;;;9.90;99.90;;;;;;5030532;28;20513;-72
2021/10/25 09:37:57;;;;;;;2.00;1.73;;;10.00;99.90;;;;;;5030790;28;20940;-72
2021/10/25 09:40:34;;;;;;;3.00;2.30;;;10.20;99.90;;;;;;5044948;28;20421;-72
2021/10/25 09:43:15;;;;;;;1.77;1.67;;;10.10;99.90;;;;;;5030838;28;20489;-72
2021/10/25 09:45:58;;;;;;;1.97;1.57;;;10.10;99.90;;;;;;5042522;28;20444;-71
2021/10/25 09:51:08;;;;;;;2.20;2.03;;;10.50;99.90;;;;;;5031272;28;20460;-72
2021/10/25 09:53:46;;;;;;;2.30;2.10;;;10.40;99.90;;;;;;5030286;28;20898;-72
2021/10/25 09:56:15;;;;;;;2.70;1.97;;;10.30;99.90;;;;;;5046763;28;20194;-72
2021/10/25 09:58:57;;;;;;;2.80;2.00;;;10.30;99.90;;;;;;5049673;28;20457;-72
2021/10/25 10:01:27;;;;;;;3.80;2.00;;;10.30;99.90;;;;;;5044503;28;20789;-72
2021/10/25 10:03:53;;;;;;;3.57;2.57;;;10.20;99.90;;;;;;5048976;28;20408;-74
2021/10/25 10:06:24;;;;;;;1.43;1.33;;;10.20;99.90;;;;;;5050450;28;20406;-71
2021/10/25 10:08:50;;;;;;;2.57;2.33;;;10.30;99.90;;;;;;5034519;28;20218;-74
2021/10/25 10:11:20;;;;;;;3.03;2.27;;;10.30;99.90;;;;;;5029259;28;20832;-72
2021/10/25 10:13:46;;;;;;;3.10;2.07;;;10.30;99.90;;;;;;5030694;28;20406;-71
2021/10/25 10:16:12;;;;;;;2.30;2.13;;;10.30;99.90;;;;;;5032696;28;20461;-73
2021/10/25 10:19:00;;;;;;;2.20;2.00;;;10.40;99.90;;;;;;5052753;28;20183;-72
2021/10/25 10:21:27;;;;;;;3.20;2.37;;;10.40;99.90;;;;;;5033067;28;20835;-71
2021/10/25 10:24:00;;;;;;;3.60;2.60;;;10.60;99.90;;;;;;5034465;28;20410;-73
2021/10/25 10:26:32;;;;;;;2.47;2.27;;;10.70;99.90;;;;;;5039489;28;20573;-72
2021/10/25 10:29:16;;;;;;;2.10;1.83;;;10.70;99.90;;;;;;5024269;28;20435;-73
2021/10/25 10:31:43;;;;;;;3.57;2.50;;;10.70;99.90;;;;;;5018673;28;20503;-71
2021/10/25 10:34:17;;;;;;;3.17;1.80;;;10.80;99.90;;;;;;5017520;28;20801;-73
2021/10/25 10:36:57;;;;;;;2.90;2.53;;;10.80;99.90;;;;;;5016529;28;20458;-72
2021/10/25 10:39:27;;;;;;;4.17;2.60;;;10.90;99.90;;;;;;5033230;28;20487;-71
2021/10/25 10:41:57;;;;;;;3.57;1.93;;;10.90;99.90;;;;;;5018231;28;20400;-72
2021/10/25 10:44:28;;;;;;;4.43;2.40;;;10.90;99.90;;;;;;5018185;28;20494;-72
2021/10/25 10:47:08;;;;;;;3.53;2.70;;;11.00;99.90;;;;;;5017828;28;20406;-71
2021/10/25 10:49:45;;;;;;;1.87;1.77;;;10.90;99.90;;;;;;5034140;28;20402;-71
2021/10/25 10:52:37;;;;;;;4.33;2.83;;;10.80;99.90;;;;;;5034058;28;20398;-71
2021/10/25 10:55:15;;;;;;;3.03;2.37;;;10.80;99.90;;;;;;5033651;28;20452;-71
2021/10/25 11:00:34;;;;;;;3.13;2.40;;;11.10;99.90;;;;;;5033862;28;20856;-71
2021/10/25 11:03:15;;;;;;;5.63;2.57;;;11.30;99.90;;;;;;5033815;28;20441;-71
2021/10/25 11:05:58;;;;;;;5.20;2.07;;;11.40;99.90;;;;;;5033755;28;20406;-71
2021/10/25 11:08:35;;;;;;;3.50;1.90;;;11.40;99.90;;;;;;5033616;28;20434;-72
2021/10/25 11:11:10;;;;;;;3.20;1.87;;;11.20;99.90;;;;;;5033694;28;20436;-72
2021/10/25 11:13:44;;;;;;;4.60;1.97;;;11.20;99.90;;;;;;5030582;28;20461;-71
2021/10/25 11:16:23;;;;;;;2.80;2.00;;;11.20;99.90;;;;;;5022510;28;20956;-71
2021/10/25 11:18:51;;;;;;;3.73;1.77;;;11.30;99.90;;;;;;5018447;28;20446;-71
2021/10/25 11:21:47;;;;;;;5.00;3.90;;;11.20;99.90;;;;;;5032702;28;20436;-71
2021/10/25 11:24:15;;;;;;;2.83;2.20;;;11.20;99.90;;;;;;5032526;28;20422;-71
2021/10/25 11:26:50;;;;;;;3.10;2.80;;;11.20;99.90;;;;;;5027881;28;20434;-70
2021/10/25 11:29:27;;;;;;;2.07;1.87;;;11.30;99.90;;;;;;5014656;28;20550;-70
2021/10/25 11:32:00;;;;;;;2.57;2.17;;;11.40;99.90;;;;;;5029558;28;20422;-70
2021/10/25 11:34:32;;;;;;;5.77;2.30;;;11.30;99.90;;;;;;5029486;28;20772;-70
2021/10/25 11:37:09;;;;;;;2.90;2.40;;;11.20;99.90;;;;;;5020390;28;20521;-69
2021/10/25 11:39:45;;;;;;;5.67;2.77;;;11.30;99.90;;;;;;5019470;28;20410;-70
2021/10/25 11:42:16;;;;;;;2.60;2.40;;;11.40;99.90;;;;;;5018283;28;20415;-69
2021/10/25 11:44:44;;;;;;;3.13;1.97;;;11.30;99.90;;;;;;5018692;28;20421;-70
2021/10/25 11:47:37;;;;;;;2.07;1.57;;;11.30;99.90;;;;;;5021749;28;20980;-71
2021/10/25 11:50:10;;;;;;;4.10;2.30;;;11.20;99.90;;;;;;5031773;28;20429;-70
2021/10/25 11:52:56;;;;;;;5.00;3.00;;;11.40;99.90;;;;;;5032534;28;20424;-71
2021/10/25 11:55:42;;;;;;;3.60;2.40;;;11.40;99.90;;;;;;5030765;28;20450;-70
2021/10/25 11:58:10;;;;;;;5.40;2.93;;;11.30;99.90;;;;;;5032778;28;20505;-71
2021/10/25 12:00:40;;;;;;;3.23;2.07;;;11.30;99.90;;;;;;5023202;28;20422;-71
2021/10/25 12:03:10;;;;;;;4.87;2.70;;;11.50;99.90;;;;;;5030457;28;20779;-70
2021/10/25 12:05:35;;;;;;;2.70;2.13;;;11.50;99.90;;;;;;5032843;28;20411;-71
2021/10/25 12:08:01;;;;;;;4.13;2.70;;;11.60;99.90;;;;;;5031954;28;20476;-70
2021/10/25 12:10:28;;;;;;;3.40;3.10;;;11.70;99.90;;;;;;5032487;28;20164;-71
2021/10/25 12:13:02;;;;;;;3.13;2.27;;;11.90;99.90;;;;;;5032668;28;20196;-70
2021/10/25 12:15:29;;;;;;;3.10;2.10;;;11.90;99.90;;;;;;5032218;28;20457;-70
2021/10/25 12:17:57;;;;;;;2.50;2.27;;;12.10;99.90;;;;;;5030655;28;20438;-71
2021/10/25 12:20:37;;;;;;;3.10;2.17;;;11.90;99.90;;;;;;5032119;28;20474;-72
2021/10/25 12:23:05;;;;;;;3.53;2.43;;;11.90;99.90;;;;;;5028547;28;20419;-71
2021/10/25 12:25:32;;;;;;;3.70;2.30;;;11.70;99.90;;;;;;5031476;28;20421;-70
2021/10/25 12:28:01;;;;;;;3.73;2.43;;;11.70;99.90;;;;;;5031972;28;20527;-70
2021/10/25 12:30:28;;;;;;;3.07;2.50;;;11.60;99.90;;;;;;5032114;28;20407;-71
2021/10/25 12:32:57;;;;;;;3.33;2.27;;;11.60;99.90;;;;;;5031636;28;20425;-70
2021/10/25 12:35:43;;;;;;;2.80;2.23;;;11.70;99.90;;;;;;5016515;28;20991;-72
2021/10/25 12:38:17;;;;;;;2.97;2.47;;;11.80;99.90;;;;;;5012417;28;20422;-71
2021/10/25 12:40:52;;;;;;;2.20;2.00;;;11.80;99.90;;;;;;5012440;28;20402;-71
2021/10/25 12:43:18;;;;;;;3.33;2.40;;;11.70;99.90;;;;;;5012047;28;20414;-71
2021/10/25 12:45:58;;;;;;;3.00;2.70;;;11.60;99.90;;;;;;5017885;28;20423;-71
2021/10/25 12:48:25;;;;;;;4.33;2.43;;;11.70;99.90;;;;;;5012158;28;20829;-71
2021/10/25 12:51:01;;;;;;;7.37;3.03;;;11.80;99.90;;;;;;5012158;28;20894;-71
2021/10/25 12:53:32;;;;;;;2.40;2.20;;;11.70;99.90;;;;;;5012637;28;20401;-70
2021/10/25 12:56:00;;;;;;;2.63;2.27;;;11.80;99.90;;;;;;5012573;28;20454;-75
2021/10/25 12:58:26;;;;;;;3.53;2.43;;;11.90;99.90;;;;;;5011425;28;20806;-70
2021/10/25 13:00:52;;;;;;;4.47;2.97;;;11.90;99.90;;;;;;5018611;28;20553;-71
2021/10/25 13:03:18;;;;;;;2.93;2.70;;;12.00;99.90;;;;;;5031855;28;20421;-69
2021/10/25 13:05:50;;;;;;;7.87;2.57;;;11.90;99.90;;;;;;5021475;28;20427;-70
2021/10/25 13:08:21;;;;;;;3.20;2.13;;;11.90;99.90;;;;;;5012928;28;20489;-70
2021/10/25 13:10:47;;;;;;;4.20;2.73;;;11.80;99.90;;;;;;5019884;28;20925;-70
2021/10/25 13:13:15;;;;;;;2.40;2.17;;;11.60;99.90;;;;;;5031683;28;20411;-71
2021/10/25 13:15:43;;;;;;;3.03;2.73;;;11.70;99.90;;;;;;5031224;28;20203;-72
2021/10/25 13:18:10;;;;;;;5.50;3.07;;;11.70;99.90;;;;;;5027526;28;20434;-69
2021/10/25 13:20:42;;;;;;;5.87;2.57;;;11.60;99.90;;;;;;5028570;28;20410;-69
2021/10/25 13:23:09;;;;;;;6.40;2.97;;;11.60;99.90;;;;;;5031773;28;20406;-69
2021/10/25 13:25:35;;;;;;;3.40;2.63;;;11.60;99.90;;;;;;5022627;28;20423;-70
2021/10/25 13:28:03;;;;;;;4.53;3.80;;;11.50;99.90;;;;;;5031356;28;20436;-70
2021/10/25 13:30:30;;;;;;;2.77;2.50;;;11.50;99.90;;;;;;5031045;28;20438;-70
2021/10/25 13:32:56;;;;;;;5.97;3.40;;;11.50;99.90;;;;;;5031682;28;20818;-69
2021/10/25 13:35:22;;;;;;;4.30;3.07;;;11.50;99.90;;;;;;5031323;28;20454;-71
2021/10/25 13:37:54;;;;;;;4.00;3.30;;;11.50;99.90;;;;;;5032151;28;20453;-70
2021/10/25 13:40:25;;;;;;;3.70;2.73;;;11.60;99.90;;;;;;5034529;28;20167;-68
2021/10/25 13:42:51;;;;;;;2.93;2.40;;;11.70;99.90;;;;;;5030843;28;20784;-69
2021/10/25 13:45:17;;;;;;;4.23;3.07;;;11.60;99.90;;;;;;5031536;28;20514;-70
2021/10/25 13:47:43;;;;;;;3.17;2.60;;;11.70;99.90;;;;;;5031088;28;20681;-70
2021/10/25 13:50:09;;;;;;;3.10;2.70;;;11.70;99.90;;;;;;5031474;28;20403;-70
2021/10/25 13:52:36;;;;;;;5.43;3.47;;;11.80;99.90;;;;;;5031257;28;20410;-70
2021/10/25 13:55:05;;;;;;;4.93;2.93;;;11.60;99.90;;;;;;5030178;28;20201;-70
2021/10/25 13:57:35;;;;;;;3.60;3.00;;;11.60;99.90;;;;;;5030966;28;20434;-70
2021/10/25 14:00:03;;;;;;;3.23;2.93;;;11.50;99.90;;;;;;5030731;28;20414;-69
2021/10/25 14:02:30;;;;;;;3.53;3.00;;;11.50;99.90;;;;;;5032304;28;20413;-69
2021/10/25 14:04:58;;;;;;;3.20;2.87;;;11.50;99.90;;;;;;5035239;28;20398;-69
2021/10/25 14:07:30;;;;;;;3.33;2.73;;;11.50;99.90;;;;;;5034881;28;20426;-69
2021/10/25 14:10:20;;;;;;;6.97;3.43;;;11.70;99.90;;;;;;5035025;28;20414;-70
2021/10/25 14:12:46;;;;;;;9.27;3.07;;;11.50;99.90;;;;;;5034568;28;20440;-70
2021/10/25 14:15:29;;;;;;;3.63;2.97;;;11.50;99.90;;;;;;5034729;28;20418;-70
2021/10/25 14:17:57;;;;;;;3.40;2.30;;;11.40;99.90;;;;;;5034765;28;20432;-70
2021/10/25 14:20:26;;;;;;;4.53;2.63;;;11.40;99.90;;;;;;5033104;28;20814;-70
2021/10/25 14:22:54;;;;;;;3.63;3.33;;;11.40;99.90;;;;;;5028505;28;20467;-71
2021/10/25 14:25:20;;;;;;;4.43;2.63;;;11.40;99.90;;;;;;5034282;28;20784;-69
2021/10/25 14:27:46;;;;;;;4.80;3.13;;;11.30;99.90;;;;;;5034616;28;20430;-70
2021/10/25 14:30:11;;;;;;;4.63;4.00;;;11.30;99.90;;;;;;5034431;28;20163;-70
2021/10/25 14:32:37;;;;;;;5.10;2.60;;;11.30;99.90;;;;;;5033453;28;20205;-70